Latest Weather Observations for Point Stuart

IDD60801

Issued at 5:01 pm CST Friday 3 December 2021 (issued every 10 minutes, with the page automatically refreshed every 10 minutes)

About weather observations | Map of weather stations | Latest weather observations for NT | Other Formats
Station Details ID: 014254 Name: POINT STUART Lat: -12.24 Lon: 131.88 Height: 1.0 m
Data from the previous 72 hours. | See also: Recent months at Point Stuart
Date/Time
CST
Temp
°C
App
Temp
°C
Dew
Point
°C
Rel
Hum
%
Delta-T
°C
Wind Press
QNH
hPa
Press
MSL
hPa
Rain since
9am
mm
Dir  Spd
km/h
Gust
km/h
Spd
kts
Gust
kts
03/05:00pm 27.0 29.3 24.1 84 2.0 E 19 32 10 17 1005.9 1005.9 1.4
03/04:37pm 31.3 32.8 22.0 57 6.3 NE 17 46 9 25 1006.1 1006.1 0.0
03/04:30pm 32.7 36.6 23.6 58 6.3 NNE 9 13 5 7 1005.1 1005.1 0.0
03/04:00pm 35.1 39.3 25.3 57 7.0 N 13 20 7 11 1005.4 1005.4 0.0
03/03:30pm 35.4 39.8 25.6 57 7.0 NNW 13 19 7 10 1005.2 1005.2 0.0
03/03:00pm 35.5 40.3 25.7 57 7.0 N 11 20 6 11 1005.6 1005.6 0.0
03/02:30pm 35.5 39.7 25.4 56 7.2 N 13 19 7 10 1006.0 1006.0 0.0
03/02:00pm 35.0 39.9 25.8 59 6.6 N 11 17 6 9 1006.5 1006.5 0.0
03/01:30pm 34.6 39.2 26.5 62 5.9 N 15 22 8 12 1007.2 1007.2 0.0
03/01:00pm 35.6 39.9 26.6 59 6.5 NE 17 26 9 14 1007.6 1007.6 0.0
03/12:30pm 35.1 38.7 25.0 56 7.2 NE 15 22 8 12 1007.9 1007.9 0.0
03/12:00pm 35.7 39.1 24.6 52 7.9 NE 15 24 8 13 1008.2 1008.2 0.0
03/11:30am 35.6 39.7 25.8 57 7.0 NE 15 20 8 11 1008.5 1008.5 0.0
03/11:00am 35.5 41.4 26.8 60 6.3 E 9 15 5 8 1008.7 1008.7 0.0
03/10:30am 33.8 39.3 27.3 69 4.7 E 13 19 7 10 1009.1 1009.1 0.0
03/10:00am 33.3 38.4 27.8 73 4.0 E 17 24 9 13 1009.5 1009.5 0.0
03/09:30am 33.6 38.5 28.1 73 4.0 E 19 22 10 12 1009.7 1009.7 0.0
03/09:00am 33.0 37.9 27.5 73 4.0 E 17 24 9 13 1009.5 1009.5 0.0
03/08:30am 32.2 36.9 26.7 72 4.0 E 15 20 8 11 1009.4 1009.4 0.0
03/08:00am 31.2 36.1 26.9 78 3.1 ESE 15 17 8 9 1009.1 1009.1 0.0
03/07:30am 29.5 35.9 26.9 86 1.9 ESE 7 11 4 6 1008.7 1008.7 0.0
03/07:00am 27.0 32.6 25.8 93 0.8 ESE 7 9 4 5 1008.5 1008.5 0.0
03/06:30am 26.6 31.9 25.2 92 1.0 E 7 9 4 5 1008.1 1008.1 0.0
03/06:00am 26.7 32.2 25.3 92 1.0 E 6 7 3 4 1007.7 1007.7 0.0
03/05:30am 26.9 32.4 25.3 91 1.1 SSE 6 9 3 5 1007.5 1007.5 0.0
03/05:00am 26.7 32.1 25.5 93 0.8 S 7 9 4 5 1006.9 1006.9 0.0
03/04:30am 26.8 32.5 25.6 93 0.8 S 6 7 3 4 1006.7 1006.7 0.0
03/04:00am 26.9 32.5 25.5 92 1.0 ESE 6 7 3 4 1006.5 1006.5 0.0
03/03:30am 27.1 33.0 25.9 93 0.8 SSW 6 7 3 4 1006.5 1006.5 0.0
03/03:00am 27.1 33.0 25.9 93 0.8 SSW 6 6 3 3 1006.5 1006.5 0.0
03/02:30am 27.4 33.2 25.8 91 1.1 SSW 6 7 3 4 1006.7 1006.7 0.0
03/02:00am 27.5 33.4 25.9 91 1.1 S 6 7 3 4 1007.2 1007.2 0.0
03/01:30am 27.7 34.3 25.3 87 1.7 CALM 0 0 0 0 1007.6 1007.6 0.0
03/01:00am 28.1 34.6 25.1 84 2.1 CALM 0 0 0 0 1008.2 1008.2 0.0
03/12:30am 28.4 33.6 24.8 81 2.5 N 6 7 3 4 1008.5 1008.5 0.0
03/12:00am 28.7 34.3 25.5 83 2.3 NNE 6 7 3 4 1008.8 1008.8 0.0
 
Date/Time
CST
Temp
°C
App
Temp
°C
Dew
Point
°C
Rel
Hum
%
Delta-T
°C
Wind Press
QNH
hPa
Press
MSL
hPa
Rain since
9am
mm
Dir  Spd
km/h
Gust
km/h
Spd
kts
Gust
kts
02/11:30pm 29.1 35.1 25.5 81 2.5 N 4 7 2 4 1008.6 1008.6 0.0
02/11:00pm 29.6 35.4 25.8 80 2.7 N 6 9 3 5 1008.9 1008.9 0.0
02/10:30pm 30.1 35.3 26.3 80 2.7 NNW 11 17 6 9 1008.7 1008.7 0.0
02/10:00pm 30.0 34.3 24.9 74 3.6 NNW 11 17 6 9 1008.4 1008.4 0.0
02/09:30pm 29.7 33.9 24.1 72 3.9 NNW 9 13 5 7 1008.4 1008.4 0.0
02/09:00pm 30.1 34.6 24.0 70 4.2 N 7 11 4 6 1008.7 1008.7 0.0
02/08:30pm 30.1 33.9 24.0 70 4.2 N 11 17 6 9 1008.0 1008.0 0.0
02/08:00pm 30.5 34.4 24.9 72 3.9 N 13 22 7 12 1007.9 1007.9 0.0
02/07:30pm 30.7 34.4 25.8 75 3.5 NW 17 20 9 11 1007.3 1007.3 0.0
02/07:00pm 31.1 34.9 26.8 78 3.1 WNW 20 26 11 14 1006.5 1006.5 0.0
02/06:30pm 31.7 35.4 27.2 77 3.3 WNW 22 30 12 16 1006.0 1006.0 0.0
02/06:00pm 32.5 35.3 25.8 68 4.8 NW 22 30 12 16 1005.8 1005.8 0.0
02/05:30pm 33.9 37.3 26.1 63 5.6 NW 20 28 11 15 1005.1 1005.1 0.0
02/05:00pm 34.0 37.6 27.5 69 4.7 NW 24 32 13 17 1005.0 1005.0 0.0
02/04:30pm 34.2 37.9 27.2 67 5.1 NW 22 30 12 16 1005.0 1005.0 0.0
02/04:00pm 34.9 38.7 26.5 61 6.1 NW 19 26 10 14 1004.8 1004.8 0.0
02/03:30pm 36.0 39.6 26.4 57 7.0 NW 20 26 11 14 1005.1 1005.1 0.0
02/03:00pm 36.2 40.1 26.9 59 6.8 NW 20 28 11 15 1005.5 1005.5 0.0
02/02:30pm 36.0 40.8 28.1 64 5.8 NW 20 28 11 15 1005.8 1005.8 0.0
02/02:00pm 34.8 38.6 26.4 61 6.1 NW 19 26 10 14 1006.3 1006.3 0.0
02/01:30pm 35.7 40.0 26.7 59 6.5 NW 17 24 9 13 1006.8 1006.8 0.0
02/01:00pm 35.1 40.2 26.7 61 6.1 NNW 13 19 7 10 1007.4 1007.4 0.0
02/12:30pm 35.3 40.1 27.4 63 5.8 NW 17 24 9 13 1007.7 1007.7 0.0
02/12:00pm 34.4 39.8 27.1 65 5.3 NW 13 19 7 10 1008.0 1008.0 0.0
02/11:30am 34.4 39.6 27.4 67 5.1 NW 15 19 8 10 1008.1 1008.1 0.0
02/11:00am 35.2 39.4 25.4 57 7.0 SW 13 19 7 10 1008.3 1008.3 0.0
02/10:30am 34.6 38.5 24.8 56 6.9 WSW 13 20 7 11 1008.5 1008.5 0.0
02/10:00am 34.0 37.3 25.7 62 5.9 SSW 19 24 10 13 1008.7 1008.7 0.0
02/09:30am 33.0 36.7 26.3 68 4.8 SW 19 24 10 13 1008.9 1008.9 0.0
02/09:00am 31.9 36.6 26.7 74 3.7 SW 15 20 8 11 1008.7 1008.7 0.2
02/08:30am 30.9 35.2 25.5 73 3.8 SSW 13 17 7 9 1008.7 1008.7 0.2
02/08:00am 29.8 34.3 25.8 79 2.8 SW 13 15 7 8 1008.6 1008.6 0.2
02/07:30am 28.3 33.6 25.9 87 1.7 SW 9 11 5 6 1008.3 1008.3 0.2
02/07:00am 26.6 31.3 25.0 91 1.1 SSW 9 11 5 6 1008.1 1008.1 0.2
02/06:30am 26.1 31.0 24.3 90 1.2 SSW 6 9 3 5 1007.8 1007.8 0.2
02/06:00am 26.0 30.7 23.9 88 1.4 ESE 6 6 3 3 1007.3 1007.3 0.2
02/05:30am 26.0 30.5 24.0 89 1.4 SE 7 7 4 4 1007.0 1007.0 0.2
02/05:00am 26.0 30.5 23.9 88 1.4 E 7 7 4 4 1006.8 1006.8 0.2
02/04:30am 26.0 30.5 23.7 87 1.6 SE 6 7 3 4 1006.4 1006.4 0.2
02/04:00am 25.9 30.4 23.6 87 1.6 ESE 6 7 3 4 1006.4 1006.4 0.2
02/03:30am 26.2 30.5 23.7 86 1.7 SE 7 9 4 5 1006.6 1006.6 0.2
02/03:00am 26.3 30.4 24.0 87 1.6 ESE 9 11 5 6 1006.7 1006.7 0.2
02/02:30am 26.4 30.9 23.9 86 1.7 E 7 11 4 6 1006.9 1006.9 0.2
02/02:00am 26.8 31.5 24.3 86 1.7 S 7 9 4 5 1006.9 1006.9 0.2
02/01:30am 26.8 31.2 24.5 87 1.6 SSW 9 11 5 6 1007.1 1007.1 0.2
02/01:00am 26.7 31.3 24.7 89 1.4 SSW 9 9 5 5 1007.2 1007.2 0.2
02/12:30am 26.4 30.9 23.9 86 1.7 S 7 7 4 4 1007.4 1007.4 0.2
02/12:00am 26.6 30.7 23.9 85 1.9 SW 9 11 5 6 1007.9 1007.9 0.2
 
Date/Time
CST
Temp
°C
App
Temp
°C
Dew
Point
°C
Rel
Hum
%
Delta-T
°C
Wind Press
QNH
hPa
Press
MSL
hPa
Rain since
9am
mm
Dir  Spd
km/h
Gust
km/h
Spd
kts
Gust
kts
01/11:30pm 26.8 30.9 23.9 84 2.0 SW 9 11 5 6 1008.2 1008.2 0.2
01/11:00pm 27.1 31.6 24.0 83 2.1 SW 7 9 4 5 1008.4 1008.4 0.2
01/10:30pm 27.3 31.7 24.4 84 2.0 SW 9 11 5 6 1008.3 1008.3 0.2
01/10:00pm 27.7 31.3 24.3 82 2.4 WSW 13 15 7 8 1008.2 1008.2 0.2
01/09:30pm 28.2 31.2 24.0 78 2.9 WSW 15 19 8 10 1008.0 1008.0 0.2
01/09:00pm 28.9 33.2 24.9 79 2.8 W 11 17 6 9 1007.8 1007.8 0.2
01/08:30pm 29.2 34.3 25.0 78 2.9 SSE 7 13 4 7 1007.7 1007.7 0.2
01/08:00pm 29.9 34.5 24.8 74 3.6 W 9 17 5 9 1007.5 1007.5 0.2
01/07:30pm 29.9 33.9 25.0 75 3.4 WNW 13 17 7 9 1006.4 1006.4 0.2
01/07:00pm 30.4 33.8 25.2 74 3.7 WNW 17 22 9 12 1005.8 1005.8 0.2
01/06:30pm 30.8 33.8 24.7 70 4.3 NW 17 22 9 12 1005.6 1005.6 0.2
01/06:00pm 31.2 34.1 25.1 70 4.3 NW 19 26 10 14 1005.1 1005.1 0.2
01/05:30pm 31.6 33.9 25.7 71 4.2 WNW 24 30 13 16 1004.6 1004.6 0.2
01/05:00pm 31.8 34.2 26.4 73 3.9 WNW 26 33 14 18 1004.8 1004.8 0.2
01/04:30pm 32.9 35.4 25.9 66 5.0 NW 24 32 13 17 1004.7 1004.7 0.2
01/04:00pm 35.6 38.4 25.2 55 7.4 NW 20 28 11 15 1004.4 1004.4 0.2
01/03:30pm 36.0 40.3 25.5 54 7.5 NNW 13 24 7 13 1004.7 1004.7 0.2
01/03:00pm 35.3 39.6 25.5 57 7.0 NNW 13 20 7 11 1005.2 1005.2 0.2
01/02:30pm 35.6 39.5 24.8 53 7.7 NNW 13 19 7 10 1005.4 1005.4 0.2
01/02:00pm 35.0 39.3 24.9 55 7.2 N 11 20 6 11 1006.0 1006.0 0.2
01/01:30pm 34.2 38.1 24.2 56 7.0 N 11 19 6 10 1006.3 1006.3 0.2
01/01:00pm 35.5 39.5 25.1 55 7.4 N 13 19 7 10 1007.1 1007.1 0.2
01/12:30pm 35.1 38.5 23.4 50 8.2 N 11 17 6 9 1007.7 1007.7 0.2
01/12:00pm 36.2 40.2 24.4 50 8.3 NNW 11 17 6 9 1007.9 1007.9 0.2
01/11:30am 35.6 39.5 24.8 53 7.7 NNW 13 19 7 10 1007.9 1007.9 0.2
01/11:00am 34.3 38.8 23.0 51 7.8 S 4 7 2 4 1008.2 1008.2 0.2
01/10:30am 34.3 38.3 22.7 50 8.0 WSW 6 9 3 5 1008.7 1008.7 0.2
01/10:00am 33.3 38.2 24.7 60 6.1 SSW 7 13 4 7 1009.2 1009.2 0.2
01/09:30am 31.9 36.3 25.0 67 4.9 SSW 11 13 6 7 1009.5 1009.5 0.0
01/09:00am 29.7 33.9 24.8 75 3.4 SSW 11 13 6 7 1009.5 1009.5 0.0
01/08:30am 28.3 32.7 24.5 80 2.6 S 9 11 5 6 1009.3 1009.3 0.0
01/08:00am 27.5 31.9 24.4 83 2.1 SSW 9 13 5 7 1008.8 1008.8 0.0
01/07:30am 27.3 32.5 25.1 88 1.5 SSW 7 11 4 6 1008.3 1008.3 0.0
01/07:00am 26.8 33.1 24.8 89 1.4 CALM 0 0 0 0 1008.2 1008.2 0.0
01/06:30am 26.6 31.4 24.4 88 1.5 S 7 9 4 5 1007.7 1007.7 0.0
01/06:00am 26.3 31.1 24.5 90 1.2 SE 7 9 4 5 1007.7 1007.7 0.0
01/05:30am 26.4 30.9 23.7 85 1.9 NE 6 11 3 6 1006.8 1006.8 0.0
01/05:00am 27.1 31.4 23.6 81 2.4 E 7 11 4 6 1007.0 1007.0 0.0
01/04:30am 26.5 30.6 23.2 82 2.3 NNE 7 13 4 7 1006.6 1006.6 0.0
01/04:00am 26.9 28.9 23.6 82 2.3 ENE 19 32 10 17 1006.8 1006.8 0.0
01/03:30am 28.4 34.6 26.4 89 1.4 SSW 6 9 3 5 1006.2 1006.2 0.0
01/03:00am 28.7 34.7 26.3 87 1.7 WNW 7 9 4 5 1006.3 1006.3 0.0
01/02:30am 29.0 34.7 26.4 86 1.9 WNW 9 13 5 7 1006.1 1006.1 0.0
01/02:00am 28.8 34.1 26.4 87 1.7 NW 11 15 6 8 1006.1 1006.1 0.0
01/01:30am 28.7 34.2 26.1 86 1.8 NNW 9 13 5 7 1006.4 1006.4 0.0
01/01:00am 29.1 33.5 26.3 85 2.0 NW 15 20 8 11 1006.4 1006.4 0.0
01/12:30am 29.2 33.7 26.4 85 2.0 NW 15 20 8 11 1006.7 1006.7 0.0
01/12:00am 29.2 33.7 26.4 85 2.0 NW 15 20 8 11 1006.9 1006.9 0.0
 
Date/Time
CST
Temp
°C
App
Temp
°C
Dew
Point
°C
Rel
Hum
%
Delta-T
°C
Wind Press
QNH
hPa
Press
MSL
hPa
Rain since
9am
mm
Dir  Spd
km/h
Gust
km/h
Spd
kts
Gust
kts
30/11:30pm 29.4 34.4 26.0 82 2.4 NNW 11 17 6 9 1007.1 1007.1 0.0
30/11:00pm 29.7 34.6 25.2 77 3.2 NNW 9 17 5 9 1007.1 1007.1 0.0
30/10:30pm 30.0 34.9 25.3 76 3.3 NNW 9 15 5 8 1007.1 1007.1 0.0
30/10:00pm 30.3 35.0 25.6 76 3.3 NNW 11 19 6 10 1007.0 1007.0 0.0
30/09:30pm 30.5 33.5 26.2 78 3.1 NW 22 30 12 16 1006.7 1006.7 0.0
30/09:00pm 30.5 33.5 26.2 78 3.1 NW 22 30 12 16 1006.2 1006.2 0.0
30/08:30pm 30.5 33.7 25.8 76 3.3 NW 20 26 11 14 1005.8 1005.8 0.0
30/08:00pm 30.3 34.0 25.1 73 3.7 NW 15 20 8 11 1005.4 1005.4 0.0
30/07:30pm 30.4 33.2 25.0 73 3.8 NW 19 26 10 14 1005.1 1005.1 0.0
30/07:00pm 30.5 34.1 25.6 75 3.5 NW 17 20 9 11 1004.7 1004.7 0.0
30/06:30pm 31.0 34.2 25.8 74 3.7 WNW 20 26 11 14 1004.5 1004.5 0.0
30/06:00pm 31.5 34.7 25.8 72 4.1 WNW 20 28 11 15 1004.1 1004.1 0.0
30/05:30pm 31.3 34.1 25.2 70 4.3 NW 20 24 11 13 1003.7 1003.7 0.0

Other formats

Comma delimited format used in spreadsheet applications
http://www.bom.gov.au/fwo/IDD60801/IDD60801.94127.axf

JavaScript Object Notation format (JSON) in row-major order
http://www.bom.gov.au/fwo/IDD60801/IDD60801.94127.json

Data quality

Most of these data are generated automatically and are frequently updated. Quality checks on data are not normally performed. It is possible for incorrect values to appear. Refer to information at About Latest Weather Observations and please check the disclaimer before using these data.